sensor_id;sensor_type;location;lat;lon;timestamp;temperature;humidity
3528;DHT22;1778;47.966;7.854;2023-04-12T00:00:38;8.70;99.90
3528;DHT22;1778;47.966;7.854;2023-04-12T00:01:40;8.80;99.90
3528;DHT22;1778;47.966;7.854;2023-04-12T00:02:42;8.80;99.90
3528;DHT22;1778;47.966;7.854;2023-04-12T00:03:45;8.80;99.90
3528;DHT22;1778;47.966;7.854;2023-04-12T00:04:51;8.80;99.90
3528;DHT22;1778;47.966;7.854;2023-04-12T00:05:56;8.80;99.90
3528;DHT22;1778;47.966;7.854;2023-04-12T00:06:57;8.80;99.90
3528;DHT22;1778;47.966;7.854;2023-04-12T00:08:01;8.80;99.90
3528;DHT22;1778;47.966;7.854;2023-04-12T00:09:06;8.80;99.90
3528;DHT22;1778;47.966;7.854;2023-04-12T00:10:09;8.80;99.90
3528;DHT22;1778;47.966;7.854;2023-04-12T00:11:11;8.70;99.90
3528;DHT22;1778;47.966;7.854;2023-04-12T00:12:12;8.70;99.90
3528;DHT22;1778;47.966;7.854;2023-04-12T00:13:14;8.70;99.90
3528;DHT22;1778;47.966;7.854;2023-04-12T00:14:16;8.70;99.90
3528;DHT22;1778;47.966;7.854;2023-04-12T00:15:17;8.70;99.90
3528;DHT22;1778;47.966;7.854;2023-04-12T00:16:19;8.80;99.90
3528;DHT22;1778;47.966;7.854;2023-04-12T00:17:21;8.80;99.90
3528;DHT22;1778;47.966;7.854;2023-04-12T00:18:23;8.80;99.90
3528;DHT22;1778;47.966;7.854;2023-04-12T00:19:26;8.80;99.90
3528;DHT22;1778;47.966;7.854;2023-04-12T00:20:28;8.70;99.90
3528;DHT22;1778;47.966;7.854;2023-04-12T00:21:30;8.70;99.90
3528;DHT22;1778;47.966;7.854;2023-04-12T00:22:31;8.70;99.90
3528;DHT22;1778;47.966;7.854;2023-04-12T00:23:33;8.70;99.90
3528;DHT22;1778;47.966;7.854;2023-04-12T00:24:37;8.70;99.90
3528;DHT22;1778;47.966;7.854;2023-04-12T00:25:38;8.80;99.90
3528;DHT22;1778;47.966;7.854;2023-04-12T00:26:40;8.70;99.90
3528;DHT22;1778;47.966;7.854;2023-04-12T00:27:42;8.70;99.90
3528;DHT22;1778;47.966;7.854;2023-04-12T00:28:43;8.70;99.90
3528;DHT22;1778;47.966;7.854;2023-04-12T00:29:45;8.70;99.90
3528;DHT22;1778;47.966;7.854;2023-04-12T00:30:46;8.70;99.90
3528;DHT22;1778;47.966;7.854;2023-04-12T00:31:48;8.70;99.90
3528;DHT22;1778;47.966;7.854;2023-04-12T00:32:49;8.70;99.90
3528;DHT22;1778;47.966;7.854;2023-04-12T00:33:51;8.60;99.90
3528;DHT22;1778;47.966;7.854;2023-04-12T00:34:53;8.60;99.90
3528;DHT22;1778;47.966;7.854;2023-04-12T00:35:54;8.60;99.90
3528;DHT22;1778;47.966;7.854;2023-04-12T00:36:56;8.60;99.90
3528;DHT22;1778;47.966;7.854;2023-04-12T00:37:57;8.60;99.90
3528;DHT22;1778;47.966;7.854;2023-04-12T00:38:59;8.60;99.90
3528;DHT22;1778;47.966;7.854;2023-04-12T00:40:01;8.60;99.90
3528;DHT22;1778;47.966;7.854;2023-04-12T00:41:03;8.60;99.90
3528;DHT22;1778;47.966;7.854;2023-04-12T00:42:04;8.60;99.90
3528;DHT22;1778;47.966;7.854;2023-04-12T00:43:06;8.60;99.90
3528;DHT22;1778;47.966;7.854;2023-04-12T00:44:09;8.60;99.90
3528;DHT22;1778;47.966;7.854;2023-04-12T00:45:11;8.60;99.90
3528;DHT22;1778;47.966;7.854;2023-04-12T00:46:12;8.60;99.90
3528;DHT22;1778;47.966;7.854;2023-04-12T00:47:14;8.60;99.90
3528;DHT22;1778;47.966;7.854;2023-04-12T00:48:15;8.60;99.90
3528;DHT22;1778;47.966;7.854;2023-04-12T00:49:18;8.60;99.90
3528;DHT22;1778;47.966;7.854;2023-04-12T00:50:20;8.70;99.90
3528;DHT22;1778;47.966;7.854;2023-04-12T00:51:21;8.70;99.90
3528;DHT22;1778;47.966;7.854;2023-04-12T00:52:25;8.70;99.90
3528;DHT22;1778;47.966;7.854;2023-04-12T00:53:28;8.70;99.90
3528;DHT22;1778;47.966;7.854;2023-04-12T00:54:30;8.70;99.90
3528;DHT22;1778;47.966;7.854;2023-04-12T00:55:33;8.70;99.90
3528;DHT22;1778;47.966;7.854;2023-04-12T00:56:35;8.70;99.90
3528;DHT22;1778;47.966;7.854;2023-04-12T00:57:39;8.70;99.90
3528;DHT22;1778;47.966;7.854;2023-04-12T00:58:41;8.70;99.90
3528;DHT22;1778;47.966;7.854;2023-04-12T00:59:43;8.60;99.90
3528;DHT22;1778;47.966;7.854;2023-04-12T01:00:45;8.70;99.90
3528;DHT22;1778;47.966;7.854;2023-04-12T01:01:50;8.60;99.90
3528;DHT22;1778;47.966;7.854;2023-04-12T01:02:53;8.70;99.90
3528;DHT22;1778;47.966;7.854;2023-04-12T01:03:55;8.60;99.90
3528;DHT22;1778;47.966;7.854;2023-04-12T01:05:03;8.60;99.90
3528;DHT22;1778;47.966;7.854;2023-04-12T01:09:22;8.50;99.90
3528;DHT22;1778;47.966;7.854;2023-04-12T01:11:44;8.60;99.90
3528;DHT22;1778;47.966;7.854;2023-04-12T01:13:11;8.70;99.90
3528;DHT22;1778;47.966;7.854;2023-04-12T01:15:26;8.60;99.90
3528;DHT22;1778;47.966;7.854;2023-04-12T01:16:45;8.60;99.90
3528;DHT22;1778;47.966;7.854;2023-04-12T01:18:24;8.50;99.90
3528;DHT22;1778;47.966;7.854;2023-04-12T01:21:05;8.50;99.90
3528;DHT22;1778;47.966;7.854;2023-04-12T01:22:16;8.40;99.90
3528;DHT22;1778;47.966;7.854;2023-04-12T01:24:42;8.50;99.90
3528;DHT22;1778;47.966;7.854;2023-04-12T01:26:49;8.50;99.90
3528;DHT22;1778;47.966;7.854;2023-04-12T01:27:56;8.50;99.90
3528;DHT22;1778;47.966;7.854;2023-04-12T01:28:58;8.60;99.90
3528;DHT22;1778;47.966;7.854;2023-04-12T01:30:01;8.50;99.90
3528;DHT22;1778;47.966;7.854;2023-04-12T01:31:05;8.50;99.90
3528;DHT22;1778;47.966;7.854;2023-04-12T01:32:10;8.50;99.90
3528;DHT22;1778;47.966;7.854;2023-04-12T01:33:13;8.50;99.90
3528;DHT22;1778;47.966;7.854;2023-04-12T01:34:16;8.50;99.90
3528;DHT22;1778;47.966;7.854;2023-04-12T01:35:22;8.50;99.90
3528;DHT22;1778;47.966;7.854;2023-04-12T01:36:25;8.50;99.90
3528;DHT22;1778;47.966;7.854;2023-04-12T01:37:28;8.60;99.90
3528;DHT22;1778;47.966;7.854;2023-04-12T01:38:32;8.60;99.90
3528;DHT22;1778;47.966;7.854;2023-04-12T01:39:34;8.60;99.90
3528;DHT22;1778;47.966;7.854;2023-04-12T01:40:36;8.60;99.90
3528;DHT22;1778;47.966;7.854;2023-04-12T01:41:41;8.60;99.90
3528;DHT22;1778;47.966;7.854;2023-04-12T01:42:45;8.60;99.90
3528;DHT22;1778;47.966;7.854;2023-04-12T01:43:47;8.60;99.90
3528;DHT22;1778;47.966;7.854;2023-04-12T01:44:49;8.60;99.90
3528;DHT22;1778;47.966;7.854;2023-04-12T01:45:51;8.60;99.90
3528;DHT22;1778;47.966;7.854;2023-04-12T01:46:52;8.60;99.90
3528;DHT22;1778;47.966;7.854;2023-04-12T01:47:54;8.60;99.90
3528;DHT22;1778;47.966;7.854;2023-04-12T01:48:56;8.60;99.90
3528;DHT22;1778;47.966;7.854;2023-04-12T01:50:15;8.60;99.90
3528;DHT22;1778;47.966;7.854;2023-04-12T01:53:02;8.60;99.90
3528;DHT22;1778;47.966;7.854;2023-04-12T01:54:13;8.60;99.90
3528;DHT22;1778;47.966;7.854;2023-04-12T01:55:20;8.60;99.90
3528;DHT22;1778;47.966;7.854;2023-04-12T01:56:24;8.60;99.90
3528;DHT22;1778;47.966;7.854;2023-04-12T01:57:28;8.60;99.90
3528;DHT22;1778;47.966;7.854;2023-04-12T01:58:30;8.60;99.90
3528;DHT22;1778;47.966;7.854;2023-04-12T01:59:42;8.60;99.90
3528;DHT22;1778;47.966;7.854;2023-04-12T02:00:45;8.70;99.90
3528;DHT22;1778;47.966;7.854;2023-04-12T02:01:47;8.70;99.90
3528;DHT22;1778;47.966;7.854;2023-04-12T02:02:49;8.70;99.90
3528;DHT22;1778;47.966;7.854;2023-04-12T02:03:51;8.70;99.90
3528;DHT22;1778;47.966;7.854;2023-04-12T02:04:54;8.60;99.90
3528;DHT22;1778;47.966;7.854;2023-04-12T02:05:58;8.60;99.90
3528;DHT22;1778;47.966;7.854;2023-04-12T02:07:00;8.70;99.90
3528;DHT22;1778;47.966;7.854;2023-04-12T02:08:02;8.60;99.90
3528;DHT22;1778;47.966;7.854;2023-04-12T02:09:04;8.60;99.90
3528;DHT22;1778;47.966;7.854;2023-04-12T02:10:07;8.60;99.90
3528;DHT22;1778;47.966;7.854;2023-04-12T02:11:13;8.60;99.90
3528;DHT22;1778;47.966;7.854;2023-04-12T02:12:17;8.60;99.90
3528;DHT22;1778;47.966;7.854;2023-04-12T02:13:19;8.60;99.90
3528;DHT22;1778;47.966;7.854;2023-04-12T02:14:21;8.60;99.90
3528;DHT22;1778;47.966;7.854;2023-04-12T02:15:23;8.60;99.90
3528;DHT22;1778;47.966;7.854;2023-04-12T02:16:24;8.60;99.90
3528;DHT22;1778;47.966;7.854;2023-04-12T02:17:30;8.70;99.90
3528;DHT22;1778;47.966;7.854;2023-04-12T02:18:31;8.70;99.90
3528;DHT22;1778;47.966;7.854;2023-04-12T02:19:33;8.70;99.90
3528;DHT22;1778;47.966;7.854;2023-04-12T02:20:35;8.70;99.90
3528;DHT22;1778;47.966;7.854;2023-04-12T02:21:43;8.70;99.90
3528;DHT22;1778;47.966;7.854;2023-04-12T02:22:46;8.70;99.90
3528;DHT22;1778;47.966;7.854;2023-04-12T02:23:47;8.70;99.90
3528;DHT22;1778;47.966;7.854;2023-04-12T02:24:50;8.70;99.90
3528;DHT22;1778;47.966;7.854;2023-04-12T02:25:52;8.70;99.90
3528;DHT22;1778;47.966;7.854;2023-04-12T02:26:53;8.70;99.90
3528;DHT22;1778;47.966;7.854;2023-04-12T02:27:56;8.70;99.90
3528;DHT22;1778;47.966;7.854;2023-04-12T02:28:58;8.70;99.90
3528;DHT22;1778;47.966;7.854;2023-04-12T02:29:59;8.70;99.90
3528;DHT22;1778;47.966;7.854;2023-04-12T02:31:02;8.70;99.90
3528;DHT22;1778;47.966;7.854;2023-04-12T02:32:05;8.70;99.90
3528;DHT22;1778;47.966;7.854;2023-04-12T02:33:07;8.80;99.90
3528;DHT22;1778;47.966;7.854;2023-04-12T02:34:10;8.80;99.90
3528;DHT22;1778;47.966;7.854;2023-04-12T02:35:18;8.70;99.90
3528;DHT22;1778;47.966;7.854;2023-04-12T02:36:25;8.70;99.90
3528;DHT22;1778;47.966;7.854;2023-04-12T02:37:27;8.70;99.90
3528;DHT22;1778;47.966;7.854;2023-04-12T02:38:29;8.80;99.90
3528;DHT22;1778;47.966;7.854;2023-04-12T02:39:35;8.80;99.90
3528;DHT22;1778;47.966;7.854;2023-04-12T02:40:39;8.80;99.90
3528;DHT22;1778;47.966;7.854;2023-04-12T02:41:48;8.80;99.90
3528;DHT22;1778;47.966;7.854;2023-04-12T02:42:50;8.80;99.90
3528;DHT22;1778;47.966;7.854;2023-04-12T02:43:51;8.80;99.90
3528;DHT22;1778;47.966;7.854;2023-04-12T02:44:54;8.70;99.90
3528;DHT22;1778;47.966;7.854;2023-04-12T02:45:55;8.80;99.90
3528;DHT22;1778;47.966;7.854;2023-04-12T02:46:57;8.80;99.90
3528;DHT22;1778;47.966;7.854;2023-04-12T02:47:59;8.70;99.90
3528;DHT22;1778;47.966;7.854;2023-04-12T02:49:03;8.70;99.90
3528;DHT22;1778;47.966;7.854;2023-04-12T02:50:10;8.70;99.90
3528;DHT22;1778;47.966;7.854;2023-04-12T02:51:22;8.60;99.90
3528;DHT22;1778;47.966;7.854;2023-04-12T02:52:24;8.70;99.90
3528;DHT22;1778;47.966;7.854;2023-04-12T02:53:52;8.70;99.90
3528;DHT22;1778;47.966;7.854;2023-04-12T02:54:57;8.70;99.90
3528;DHT22;1778;47.966;7.854;2023-04-12T02:55:59;8.70;99.90
3528;DHT22;1778;47.966;7.854;2023-04-12T02:57:02;8.70;99.90
3528;DHT22;1778;47.966;7.854;2023-04-12T02:58:08;8.70;99.90
3528;DHT22;1778;47.966;7.854;2023-04-12T02:59:16;8.70;99.90
3528;DHT22;1778;47.966;7.854;2023-04-12T03:00:43;8.70;99.90
3528;DHT22;1778;47.966;7.854;2023-04-12T03:01:48;8.70;99.90
3528;DHT22;1778;47.966;7.854;2023-04-12T03:02:59;8.70;99.90
3528;DHT22;1778;47.966;7.854;2023-04-12T03:04:05;8.70;99.90
3528;DHT22;1778;47.966;7.854;2023-04-12T03:05:15;8.70;99.90
3528;DHT22;1778;47.966;7.854;2023-04-12T03:06:18;8.80;99.90
3528;DHT22;1778;47.966;7.854;2023-04-12T03:07:20;8.90;99.90
3528;DHT22;1778;47.966;7.854;2023-04-12T03:08:24;8.90;99.90
3528;DHT22;1778;47.966;7.854;2023-04-12T03:09:29;8.90;99.90
3528;DHT22;1778;47.966;7.854;2023-04-12T03:10:32;8.90;99.90
3528;DHT22;1778;47.966;7.854;2023-04-12T03:11:36;9.00;99.90
3528;DHT22;1778;47.966;7.854;2023-04-12T03:12:39;8.90;99.90
3528;DHT22;1778;47.966;7.854;2023-04-12T03:13:47;8.90;99.90
3528;DHT22;1778;47.966;7.854;2023-04-12T03:14:50;8.90;99.90
3528;DHT22;1778;47.966;7.854;2023-04-12T03:15:58;8.90;99.90
3528;DHT22;1778;47.966;7.854;2023-04-12T03:17:07;8.80;99.90
3528;DHT22;1778;47.966;7.854;2023-04-12T03:18:10;8.90;99.90
3528;DHT22;1778;47.966;7.854;2023-04-12T03:19:21;8.90;99.90
3528;DHT22;1778;47.966;7.854;2023-04-12T03:20:27;8.90;99.90
3528;DHT22;1778;47.966;7.854;2023-04-12T03:21:42;8.90;99.90
3528;DHT22;1778;47.966;7.854;2023-04-12T03:22:44;8.80;99.90
3528;DHT22;1778;47.966;7.854;2023-04-12T03:23:46;8.90;99.90
3528;DHT22;1778;47.966;7.854;2023-04-12T03:24:51;8.90;99.90
3528;DHT22;1778;47.966;7.854;2023-04-12T03:25:54;8.90;99.90
3528;DHT22;1778;47.966;7.854;2023-04-12T03:27:03;8.90;99.90
3528;DHT22;1778;47.966;7.854;2023-04-12T03:28:07;8.90;99.90
3528;DHT22;1778;47.966;7.854;2023-04-12T03:29:21;8.90;99.90
3528;DHT22;1778;47.966;7.854;2023-04-12T03:30:25;8.90;99.90
3528;DHT22;1778;47.966;7.854;2023-04-12T03:31:29;9.00;99.90
3528;DHT22;1778;47.966;7.854;2023-04-12T03:32:38;9.00;99.90
3528;DHT22;1778;47.966;7.854;2023-04-12T03:33:42;9.00;99.90
3528;DHT22;1778;47.966;7.854;2023-04-12T03:34:53;9.00;99.90
3528;DHT22;1778;47.966;7.854;2023-04-12T03:35:58;9.00;99.90
3528;DHT22;1778;47.966;7.854;2023-04-12T03:37:01;9.00;99.90
3528;DHT22;1778;47.966;7.854;2023-04-12T03:38:11;8.90;99.90
3528;DHT22;1778;47.966;7.854;2023-04-12T03:39:15;9.00;99.90
3528;DHT22;1778;47.966;7.854;2023-04-12T03:40:19;9.00;99.90
3528;DHT22;1778;47.966;7.854;2023-04-12T03:41:29;9.00;99.90
3528;DHT22;1778;47.966;7.854;2023-04-12T03:42:32;8.90;99.90
3528;DHT22;1778;47.966;7.854;2023-04-12T03:43:44;9.00;99.90
3528;DHT22;1778;47.966;7.854;2023-04-12T03:44:50;8.90;99.90
3528;DHT22;1778;47.966;7.854;2023-04-12T03:45:54;9.00;99.90
3528;DHT22;1778;47.966;7.854;2023-04-12T03:46:58;9.00;99.90
3528;DHT22;1778;47.966;7.854;2023-04-12T03:48:06;8.90;99.90
3528;DHT22;1778;47.966;7.854;2023-04-12T03:49:15;8.90;99.90
3528;DHT22;1778;47.966;7.854;2023-04-12T03:50:21;8.90;99.90
3528;DHT22;1778;47.966;7.854;2023-04-12T03:51:28;8.90;99.90
3528;DHT22;1778;47.966;7.854;2023-04-12T03:52:36;9.00;99.90
3528;DHT22;1778;47.966;7.854;2023-04-12T03:53:40;9.00;99.90
3528;DHT22;1778;47.966;7.854;2023-04-12T03:54:46;8.90;99.90
3528;DHT22;1778;47.966;7.854;2023-04-12T03:55:55;9.00;99.90
3528;DHT22;1778;47.966;7.854;2023-04-12T03:57:01;9.00;99.90
3528;DHT22;1778;47.966;7.854;2023-04-12T03:58:21;9.00;99.90
3528;DHT22;1778;47.966;7.854;2023-04-12T03:59:23;9.00;99.90
3528;DHT22;1778;47.966;7.854;2023-04-12T04:00:24;9.00;99.90
3528;DHT22;1778;47.966;7.854;2023-04-12T04:01:52;9.00;99.90
3528;DHT22;1778;47.966;7.854;2023-04-12T04:02:55;9.00;99.90
3528;DHT22;1778;47.966;7.854;2023-04-12T04:03:59;9.10;99.90
3528;DHT22;1778;47.966;7.854;2023-04-12T04:05:04;9.00;99.90
3528;DHT22;1778;47.966;7.854;2023-04-12T04:06:07;9.00;99.90
3528;DHT22;1778;47.966;7.854;2023-04-12T04:07:09;8.90;99.90
3528;DHT22;1778;47.966;7.854;2023-04-12T04:08:17;9.00;99.90
3528;DHT22;1778;47.966;7.854;2023-04-12T04:09:29;9.00;99.90
3528;DHT22;1778;47.966;7.854;2023-04-12T04:10:30;9.00;99.90
3528;DHT22;1778;47.966;7.854;2023-04-12T04:11:32;8.90;99.90
3528;DHT22;1778;47.966;7.854;2023-04-12T04:12:39;8.90;99.90
3528;DHT22;1778;47.966;7.854;2023-04-12T04:13:44;9.00;99.90
3528;DHT22;1778;47.966;7.854;2023-04-12T04:14:52;9.00;99.90
3528;DHT22;1778;47.966;7.854;2023-04-12T04:16:07;9.00;99.90
3528;DHT22;1778;47.966;7.854;2023-04-12T04:17:12;9.00;99.90
3528;DHT22;1778;47.966;7.854;2023-04-12T04:18:14;9.00;99.90
3528;DHT22;1778;47.966;7.854;2023-04-12T04:19:16;9.00;99.90
3528;DHT22;1778;47.966;7.854;2023-04-12T04:20:20;9.10;99.90
3528;DHT22;1778;47.966;7.854;2023-04-12T04:21:24;9.00;99.90
3528;DHT22;1778;47.966;7.854;2023-04-12T04:22:30;9.00;99.90
3528;DHT22;1778;47.966;7.854;2023-04-12T04:23:35;9.00;99.90
3528;DHT22;1778;47.966;7.854;2023-04-12T04:24:40;9.00;99.90
3528;DHT22;1778;47.966;7.854;2023-04-12T04:25:43;9.00;99.90
3528;DHT22;1778;47.966;7.854;2023-04-12T04:26:47;9.00;99.90
3528;DHT22;1778;47.966;7.854;2023-04-12T04:27:57;9.10;99.90
3528;DHT22;1778;47.966;7.854;2023-04-12T04:29:03;9.10;99.90
3528;DHT22;1778;47.966;7.854;2023-04-12T04:30:11;9.10;99.90
3528;DHT22;1778;47.966;7.854;2023-04-12T04:31:17;9.00;99.90
3528;DHT22;1778;47.966;7.854;2023-04-12T04:32:23;9.00;99.90
3528;DHT22;1778;47.966;7.854;2023-04-12T04:33:30;9.00;99.90
3528;DHT22;1778;47.966;7.854;2023-04-12T04:34:35;9.00;99.90
3528;DHT22;1778;47.966;7.854;2023-04-12T04:35:43;9.00;99.90
3528;DHT22;1778;47.966;7.854;2023-04-12T04:37:05;9.00;99.90
3528;DHT22;1778;47.966;7.854;2023-04-12T04:38:07;9.00;99.90
3528;DHT22;1778;47.966;7.854;2023-04-12T04:39:10;9.00;99.90
3528;DHT22;1778;47.966;7.854;2023-04-12T04:40:13;9.00;99.90
3528;DHT22;1778;47.966;7.854;2023-04-12T04:41:15;9.00;99.90
3528;DHT22;1778;47.966;7.854;2023-04-12T04:42:24;9.00;99.90
3528;DHT22;1778;47.966;7.854;2023-04-12T04:43:33;9.00;99.90
3528;DHT22;1778;47.966;7.854;2023-04-12T04:44:36;9.00;99.90
3528;DHT22;1778;47.966;7.854;2023-04-12T04:45:40;9.10;99.90
3528;DHT22;1778;47.966;7.854;2023-04-12T04:46:43;9.10;99.90
3528;DHT22;1778;47.966;7.854;2023-04-12T04:47:44;9.10;99.90
3528;DHT22;1778;47.966;7.854;2023-04-12T04:48:47;9.10;99.90
3528;DHT22;1778;47.966;7.854;2023-04-12T04:49:49;9.10;99.90
3528;DHT22;1778;47.966;7.854;2023-04-12T04:50:56;9.10;99.90
3528;DHT22;1778;47.966;7.854;2023-04-12T04:51:57;9.10;99.90
3528;DHT22;1778;47.966;7.854;2023-04-12T04:52:59;9.10;99.90
3528;DHT22;1778;47.966;7.854;2023-04-12T04:54:04;9.10;99.90
3528;DHT22;1778;47.966;7.854;2023-04-12T04:55:07;9.10;99.90
3528;DHT22;1778;47.966;7.854;2023-04-12T04:56:13;9.10;99.90
3528;DHT22;1778;47.966;7.854;2023-04-12T04:57:15;9.10;99.90
3528;DHT22;1778;47.966;7.854;2023-04-12T04:58:17;9.10;99.90
3528;DHT22;1778;47.966;7.854;2023-04-12T04:59:19;9.10;99.90
3528;DHT22;1778;47.966;7.854;2023-04-12T05:00:20;9.10;99.90
3528;DHT22;1778;47.966;7.854;2023-04-12T05:01:27;9.10;99.90
3528;DHT22;1778;47.966;7.854;2023-04-12T05:02:32;9.10;99.90
3528;DHT22;1778;47.966;7.854;2023-04-12T05:03:34;9.10;99.90
3528;DHT22;1778;47.966;7.854;2023-04-12T05:04:36;9.10;99.90
3528;DHT22;1778;47.966;7.854;2023-04-12T05:05:38;9.10;99.90
3528;DHT22;1778;47.966;7.854;2023-04-12T05:06:44;9.10;99.90
3528;DHT22;1778;47.966;7.854;2023-04-12T05:07:48;9.20;99.90
3528;DHT22;1778;47.966;7.854;2023-04-12T05:08:50;9.30;99.90
3528;DHT22;1778;47.966;7.854;2023-04-12T05:09:54;9.30;99.90
3528;DHT22;1778;47.966;7.854;2023-04-12T05:10:56;9.30;99.90
3528;DHT22;1778;47.966;7.854;2023-04-12T05:12:01;9.30;99.90
3528;DHT22;1778;47.966;7.854;2023-04-12T05:13:05;9.30;99.90
3528;DHT22;1778;47.966;7.854;2023-04-12T05:14:06;9.40;99.90
3528;DHT22;1778;47.966;7.854;2023-04-12T05:15:09;9.40;99.90
3528;DHT22;1778;47.966;7.854;2023-04-12T05:16:13;9.40;99.90
3528;DHT22;1778;47.966;7.854;2023-04-12T05:17:15;9.30;99.90
3528;DHT22;1778;47.966;7.854;2023-04-12T05:18:17;9.30;99.90
3528;DHT22;1778;47.966;7.854;2023-04-12T05:19:18;9.30;99.90
3528;DHT22;1778;47.966;7.854;2023-04-12T05:20:21;9.30;99.90
3528;DHT22;1778;47.966;7.854;2023-04-12T05:21:23;9.30;99.90
3528;DHT22;1778;47.966;7.854;2023-04-12T05:22:25;9.30;99.90
3528;DHT22;1778;47.966;7.854;2023-04-12T05:23:36;9.30;99.90
3528;DHT22;1778;47.966;7.854;2023-04-12T05:24:39;9.30;99.90
3528;DHT22;1778;47.966;7.854;2023-04-12T05:25:45;9.40;99.90
3528;DHT22;1778;47.966;7.854;2023-04-12T05:26:48;9.30;99.90
3528;DHT22;1778;47.966;7.854;2023-04-12T05:27:49;9.30;99.90
3528;DHT22;1778;47.966;7.854;2023-04-12T05:28:53;9.30;99.90
3528;DHT22;1778;47.966;7.854;2023-04-12T05:29:56;9.40;99.90
3528;DHT22;1778;47.966;7.854;2023-04-12T05:30:59;9.40;99.90
3528;DHT22;1778;47.966;7.854;2023-04-12T05:32:08;9.40;99.90
3528;DHT22;1778;47.966;7.854;2023-04-12T05:33:11;9.40;99.90
3528;DHT22;1778;47.966;7.854;2023-04-12T05:34:17;9.50;99.90
3528;DHT22;1778;47.966;7.854;2023-04-12T05:35:26;9.40;99.90
3528;DHT22;1778;47.966;7.854;2023-04-12T05:36:32;9.50;99.90
3528;DHT22;1778;47.966;7.854;2023-04-12T05:37:36;9.40;99.90
3528;DHT22;1778;47.966;7.854;2023-04-12T05:38:38;9.40;99.90
3528;DHT22;1778;47.966;7.854;2023-04-12T05:39:45;9.40;99.90
3528;DHT22;1778;47.966;7.854;2023-04-12T05:40:48;9.40;99.90
3528;DHT22;1778;47.966;7.854;2023-04-12T05:41:56;9.60;99.90
3528;DHT22;1778;47.966;7.854;2023-04-12T05:42:59;9.60;99.90
3528;DHT22;1778;47.966;7.854;2023-04-12T05:44:03;9.50;99.90
3528;DHT22;1778;47.966;7.854;2023-04-12T05:45:06;9.50;99.90
3528;DHT22;1778;47.966;7.854;2023-04-12T05:46:09;9.50;99.90
3528;DHT22;1778;47.966;7.854;2023-04-12T05:47:12;9.60;99.90
3528;DHT22;1778;47.966;7.854;2023-04-12T05:48:14;9.60;99.90
3528;DHT22;1778;47.966;7.854;2023-04-12T05:49:15;9.60;99.90
3528;DHT22;1778;47.966;7.854;2023-04-12T05:50:17;9.60;99.90
3528;DHT22;1778;47.966;7.854;2023-04-12T05:51:20;9.70;99.90
3528;DHT22;1778;47.966;7.854;2023-04-12T05:52:38;9.70;99.90
3528;DHT22;1778;47.966;7.854;2023-04-12T05:53:41;9.80;99.90
3528;DHT22;1778;47.966;7.854;2023-04-12T05:54:43;9.80;99.90
3528;DHT22;1778;47.966;7.854;2023-04-12T05:55:49;9.80;99.90
3528;DHT22;1778;47.966;7.854;2023-04-12T05:56:53;9.80;99.90
3528;DHT22;1778;47.966;7.854;2023-04-12T05:57:56;9.80;99.90
3528;DHT22;1778;47.966;7.854;2023-04-12T05:59:00;9.90;99.90
3528;DHT22;1778;47.966;7.854;2023-04-12T06:00:03;9.80;99.90
3528;DHT22;1778;47.966;7.854;2023-04-12T06:01:13;9.90;99.90
3528;DHT22;1778;47.966;7.854;2023-04-12T06:02:15;9.90;99.90
3528;DHT22;1778;47.966;7.854;2023-04-12T06:03:16;9.90;99.90
3528;DHT22;1778;47.966;7.854;2023-04-12T06:04:18;10.00;99.90
3528;DHT22;1778;47.966;7.854;2023-04-12T06:05:20;10.00;99.90
3528;DHT22;1778;47.966;7.854;2023-04-12T06:06:23;10.00;99.90
3528;DHT22;1778;47.966;7.854;2023-04-12T06:07:25;10.00;99.90
3528;DHT22;1778;47.966;7.854;2023-04-12T06:08:26;10.00;99.90
3528;DHT22;1778;47.966;7.854;2023-04-12T06:09:30;10.00;99.90
3528;DHT22;1778;47.966;7.854;2023-04-12T06:10:32;10.10;99.90
3528;DHT22;1778;47.966;7.854;2023-04-12T06:11:33;10.10;99.90
3528;DHT22;1778;47.966;7.854;2023-04-12T06:12:35;10.10;99.90
3528;DHT22;1778;47.966;7.854;2023-04-12T06:13:38;10.10;99.90
3528;DHT22;1778;47.966;7.854;2023-04-12T06:14:39;10.20;99.90
3528;DHT22;1778;47.966;7.854;2023-04-12T06:15:42;10.20;99.90
3528;DHT22;1778;47.966;7.854;2023-04-12T06:16:44;10.20;99.90
3528;DHT22;1778;47.966;7.854;2023-04-12T06:17:47;10.20;99.90
3528;DHT22;1778;47.966;7.854;2023-04-12T06:18:49;10.20;99.90
3528;DHT22;1778;47.966;7.854;2023-04-12T06:19:50;10.20;99.90
3528;DHT22;1778;47.966;7.854;2023-04-12T06:20:52;10.20;99.90
3528;DHT22;1778;47.966;7.854;2023-04-12T06:21:55;10.30;99.90
3528;DHT22;1778;47.966;7.854;2023-04-12T06:22:57;10.40;99.90
3528;DHT22;1778;47.966;7.854;2023-04-12T06:23:59;10.30;99.90
3528;DHT22;1778;47.966;7.854;2023-04-12T06:25:01;10.40;99.90
3528;DHT22;1778;47.966;7.854;2023-04-12T06:26:03;10.40;99.90
3528;DHT22;1778;47.966;7.854;2023-04-12T06:27:04;10.40;99.90
3528;DHT22;1778;47.966;7.854;2023-04-12T06:28:06;10.40;99.90
3528;DHT22;1778;47.966;7.854;2023-04-12T06:29:15;10.50;99.90
3528;DHT22;1778;47.966;7.854;2023-04-12T06:30:19;10.50;99.90
3528;DHT22;1778;47.966;7.854;2023-04-12T06:31:24;10.50;99.90
3528;DHT22;1778;47.966;7.854;2023-04-12T06:32:26;10.50;99.90
3528;DHT22;1778;47.966;7.854;2023-04-12T06:33:28;10.60;99.90
3528;DHT22;1778;47.966;7.854;2023-04-12T06:34:31;10.60;99.90
3528;DHT22;1778;47.966;7.854;2023-04-12T06:35:38;10.70;99.90
3528;DHT22;1778;47.966;7.854;2023-04-12T06:36:39;10.70;99.90
3528;DHT22;1778;47.966;7.854;2023-04-12T06:37:42;10.70;99.90
3528;DHT22;1778;47.966;7.854;2023-04-12T06:38:44;10.70;99.90
3528;DHT22;1778;47.966;7.854;2023-04-12T06:39:45;10.70;99.90
3528;DHT22;1778;47.966;7.854;2023-04-12T06:40:47;10.70;99.90
3528;DHT22;1778;47.966;7.854;2023-04-12T06:41:49;10.70;99.90
3528;DHT22;1778;47.966;7.854;2023-04-12T06:42:53;10.80;99.90
3528;DHT22;1778;47.966;7.854;2023-04-12T06:43:56;10.80;99.90
3528;DHT22;1778;47.966;7.854;2023-04-12T06:44:58;10.80;99.90
3528;DHT22;1778;47.966;7.854;2023-04-12T06:45:59;10.80;99.90
3528;DHT22;1778;47.966;7.854;2023-04-12T06:47:03;10.90;99.90
3528;DHT22;1778;47.966;7.854;2023-04-12T06:48:05;10.90;99.90
3528;DHT22;1778;47.966;7.854;2023-04-12T06:49:07;10.90;99.90
3528;DHT22;1778;47.966;7.854;2023-04-12T06:50:09;10.90;99.90
3528;DHT22;1778;47.966;7.854;2023-04-12T06:51:10;11.00;99.90
3528;DHT22;1778;47.966;7.854;2023-04-12T06:52:12;11.00;99.90
3528;DHT22;1778;47.966;7.854;2023-04-12T06:53:13;11.00;99.90
3528;DHT22;1778;47.966;7.854;2023-04-12T06:54:15;11.10;99.90
3528;DHT22;1778;47.966;7.854;2023-04-12T06:55:17;11.20;99.90
3528;DHT22;1778;47.966;7.854;2023-04-12T06:56:18;11.20;99.90
3528;DHT22;1778;47.966;7.854;2023-04-12T06:57:20;11.20;99.90
3528;DHT22;1778;47.966;7.854;2023-04-12T06:58:22;11.20;99.90
3528;DHT22;1778;47.966;7.854;2023-04-12T06:59:23;11.30;99.90
3528;DHT22;1778;47.966;7.854;2023-04-12T07:00:25;11.30;99.90
3528;DHT22;1778;47.966;7.854;2023-04-12T07:01:26;11.40;99.90
3528;DHT22;1778;47.966;7.854;2023-04-12T07:02:28;11.40;99.90
3528;DHT22;1778;47.966;7.854;2023-04-12T07:03:29;11.40;99.90
3528;DHT22;1778;47.966;7.854;2023-04-12T07:04:34;11.40;99.90
3528;DHT22;1778;47.966;7.854;2023-04-12T07:05:38;11.40;99.90
3528;DHT22;1778;47.966;7.854;2023-04-12T07:06:40;11.50;99.90
3528;DHT22;1778;47.966;7.854;2023-04-12T07:07:43;11.60;99.90
3528;DHT22;1778;47.966;7.854;2023-04-12T07:08:45;11.60;99.90
3528;DHT22;1778;47.966;7.854;2023-04-12T07:09:46;11.60;99.90
3528;DHT22;1778;47.966;7.854;2023-04-12T07:10:53;11.70;99.90
3528;DHT22;1778;47.966;7.854;2023-04-12T07:11:54;11.70;99.90
3528;DHT22;1778;47.966;7.854;2023-04-12T07:12:56;11.70;99.90
3528;DHT22;1778;47.966;7.854;2023-04-12T07:13:59;11.80;99.90
3528;DHT22;1778;47.966;7.854;2023-04-12T07:15:01;11.90;99.90
3528;DHT22;1778;47.966;7.854;2023-04-12T07:16:02;11.90;99.90